»·PEaware :: ATN3464 KSFO-KSEA

ATN3464 :: KSFO-KSEA

FLIGHT INFORMATION

Flight Status: Arrived
Operator:
Air Transport International
More flights by this operator :: More flights under this callsign
Pilot: Thomas S. (17015)
Aircraft: BOEING 767-300
(B763)
More flights by this aircraft type
Origin: KSFO San Francisco Intl
United States
Destination: KSEA Seattle-Tacoma Intl
United States
More flights between these airports :: More routes between these airports
Route: +TRUKN2 DEDHD RBL LMT HAWKZ7
File this flight plan on PilotEdge
Remarks: RMK / SIMBRIEF
Altitude:
(Current/Filed)
34,000ft
Speed:
(Current/Filed)
462kts
Departed: 06-Nov-20 01:01 PM
Arrived: 06-Nov-20 02:31 PM
Distance/Time
Traveled:
591nm/1:30
Distance/Time
To Go:
Arrived

Flight Plot

Page will automatically refresh every two minutes.

Flight plan parsing failed; only flown route is shown


Map Options




Map Legend


Flown Route
Filed Route
Departure Airport
Arrival Airport
Navaid (VOR, NDB)
Fix

Horizontal Profiles

Position Reports

Time Latitude Longitude Heading Altitude Ground
Speed
06-Nov-20 12:25 37.636619 -122.388015 60 21ft 0kts
06-Nov-20 12:26 37.636619 -122.388015 60 21ft 0kts
06-Nov-20 12:27 37.636619 -122.388015 60 21ft 0kts
06-Nov-20 12:28 37.636619 -122.388015 60 21ft 0kts
06-Nov-20 12:29 37.636619 -122.388015 60 21ft 0kts
06-Nov-20 12:30 37.636619 -122.388015 60 21ft 0kts
06-Nov-20 12:31 37.636619 -122.388015 60 21ft 0kts
06-Nov-20 12:32 37.636619 -122.388016 60 21ft 0kts
06-Nov-20 12:33 37.636619 -122.388016 60 21ft 0kts
06-Nov-20 12:34 37.636619 -122.388016 60 21ft 0kts
06-Nov-20 12:35 37.636619 -122.388016 60 21ft 0kts
06-Nov-20 12:36 37.636619 -122.388016 60 21ft 0kts
06-Nov-20 12:37 37.636619 -122.388016 60 21ft 0kts
06-Nov-20 12:38 37.636619 -122.388016 60 21ft 0kts
06-Nov-20 12:39 37.636619 -122.388016 60 21ft 0kts
06-Nov-20 12:40 37.636619 -122.388016 60 21ft 0kts
06-Nov-20 12:41 37.636619 -122.388016 60 21ft 0kts
06-Nov-20 12:42 37.636619 -122.388016 60 21ft 0kts
06-Nov-20 12:43 37.636619 -122.388016 60 21ft 0kts
06-Nov-20 12:44 37.636619 -122.388016 60 21ft 0kts
06-Nov-20 12:45 37.636619 -122.388016 60 21ft 0kts
06-Nov-20 12:46 37.636482 -122.388313 60 21ft 2kts
06-Nov-20 12:47 37.636603 -122.388970 147 21ft 0kts
06-Nov-20 12:48 37.636663 -122.389013 150 21ft 0kts
06-Nov-20 12:49 37.636663 -122.389013 150 21ft 0kts
06-Nov-20 12:50 37.636662 -122.389013 150 21ft 0kts
06-Nov-20 12:51 37.635076 -122.388155 210 22ft 15kts
06-Nov-20 12:52 37.632762 -122.391676 160 18ft 14kts
06-Nov-20 12:53 37.629645 -122.391772 133 16ft 13kts
06-Nov-20 12:54 37.627824 -122.387543 118 16ft 15kts
06-Nov-20 12:55 37.625312 -122.381542 118 17ft 22kts
06-Nov-20 12:56 37.622128 -122.373942 117 20ft 23kts
06-Nov-20 12:57 37.619572 -122.367834 117 21ft 16kts
06-Nov-20 12:58 37.617132 -122.362024 117 21ft 25kts
06-Nov-20 12:59 37.614070 -122.357040 208 22ft 11kts
06-Nov-20 13:00 37.616259 -122.363781 296 21ft 81kts
06-Nov-20 13:01 37.640941 -122.392496 19 1305ft 159kts
06-Nov-20 13:02 37.670111 -122.335208 58 2447ft 228kts
06-Nov-20 13:03 37.701965 -122.254667 59 4524ft 273kts
06-Nov-20 13:04 37.759349 -122.209112 3 7346ft 256kts
06-Nov-20 13:05 37.831147 -122.196194 2 9768ft 275kts
06-Nov-20 13:06 37.908060 -122.183437 1 9974ft 281kts
06-Nov-20 13:07 37.987334 -122.170403 1 9962ft 282kts
06-Nov-20 13:08 38.063501 -122.157857 2 9961ft 281kts
06-Nov-20 13:09 38.142614 -122.144800 1 9953ft 281kts
06-Nov-20 13:10 38.220468 -122.131920 1 9952ft 281kts
06-Nov-20 13:12 38.298060 -122.119060 2 9950ft 281kts
06-Nov-20 13:13 38.379369 -122.115915 351 10580ft 323kts
06-Nov-20 13:14 38.477318 -122.122604 351 12475ft 371kts
06-Nov-20 13:15 38.582913 -122.129848 350 14920ft 393kts
06-Nov-20 13:16 38.694756 -122.137550 350 17200ft 414kts
06-Nov-20 13:17 38.812967 -122.145762 350 18857ft 439kts
06-Nov-20 13:18 38.933059 -122.154026 350 18846ft 430kts
06-Nov-20 13:19 39.054269 -122.162489 350 20490ft 446kts
06-Nov-20 13:20 39.177917 -122.171128 350 22336ft 465kts
06-Nov-20 13:21 39.310074 -122.180386 350 24078ft 484kts
06-Nov-20 13:22 39.446767 -122.189999 350 25833ft 499kts
06-Nov-20 13:23 39.587261 -122.199915 349 27429ft 515kts
06-Nov-20 13:24 39.732363 -122.210217 349 28994ft 529kts
06-Nov-20 13:25 39.880533 -122.220775 349 30624ft 538kts
06-Nov-20 13:26 40.028250 -122.231277 349 32973ft 521kts
06-Nov-20 13:27 40.167573 -122.219760 5 33746ft 524kts
06-Nov-20 13:28 40.312757 -122.184900 5 33734ft 523kts
06-Nov-20 13:29 40.455465 -122.150367 5 33734ft 521kts
06-Nov-20 13:29 40.574254 -122.121500 5 33735ft 519kts
06-Nov-20 13:31 40.738384 -122.081451 6 33742ft 517kts
06-Nov-20 13:31 40.856769 -122.052428 6 33745ft 514kts
06-Nov-20 13:33 41.020116 -122.012221 6 33747ft 512kts
06-Nov-20 13:33 41.132661 -121.984403 6 33737ft 516kts
06-Nov-20 13:35 41.298670 -121.943174 7 33733ft 517kts
06-Nov-20 13:35 41.416179 -121.913866 7 33740ft 515kts
06-Nov-20 13:36 41.555848 -121.878893 7 33746ft 513kts
06-Nov-20 13:37 41.696737 -121.843457 7 33748ft 513kts
06-Nov-20 13:38 41.836926 -121.808038 7 33751ft 511kts
06-Nov-20 13:39 41.976541 -121.772612 7 33755ft 512kts
06-Nov-20 13:40 42.114635 -121.737604 5 33756ft 512kts
06-Nov-20 13:41 42.252975 -121.750734 345 33751ft 499kts
06-Nov-20 13:42 42.387387 -121.780797 344 33754ft 498kts
06-Nov-20 13:43 42.524523 -121.812080 344 33754ft 500kts
06-Nov-20 13:44 42.661311 -121.843458 344 33768ft 501kts
06-Nov-20 13:45 42.797605 -121.874865 345 33777ft 502kts
06-Nov-20 13:46 42.936552 -121.907025 345 33780ft 502kts
06-Nov-20 13:47 43.074401 -121.939074 345 33788ft 502kts
06-Nov-20 13:48 43.207866 -121.970255 346 33805ft 500kts
06-Nov-20 13:49 43.345202 -122.002478 346 33816ft 500kts
06-Nov-20 13:50 43.479904 -122.034236 347 33824ft 492kts
06-Nov-20 13:51 43.614694 -122.066145 347 33827ft 494kts
06-Nov-20 13:52 43.750087 -122.098352 347 33837ft 495kts
06-Nov-20 13:53 43.886591 -122.130977 347 33853ft 496kts
06-Nov-20 13:54 44.020898 -122.163221 347 33861ft 496kts
06-Nov-20 13:55 44.154050 -122.195336 347 33849ft 494kts
06-Nov-20 13:56 44.288991 -122.228031 347 33851ft 492kts
06-Nov-20 13:57 44.422821 -122.260608 347 33867ft 489kts
06-Nov-20 13:58 44.556818 -122.293382 347 33882ft 486kts
06-Nov-20 13:59 44.689412 -122.325963 347 33883ft 482kts
06-Nov-20 14:00 44.821092 -122.358467 348 33884ft 478kts
06-Nov-20 14:01 44.951833 -122.390894 348 33885ft 476kts
06-Nov-20 14:02 45.081758 -122.423264 348 33891ft 474kts
06-Nov-20 14:03 45.210357 -122.455442 348 33888ft 473kts
06-Nov-20 14:04 45.340169 -122.488084 348 33889ft 472kts
06-Nov-20 14:05 45.468680 -122.520534 348 33265ft 463kts
06-Nov-20 14:06 45.594617 -122.552515 348 31045ft 471kts
06-Nov-20 14:07 45.725039 -122.585770 348 28872ft 470kts
06-Nov-20 14:08 45.852995 -122.617575 349 26795ft 463kts
06-Nov-20 14:09 45.978591 -122.648717 350 24753ft 455kts
06-Nov-20 14:10 46.100086 -122.678765 351 22883ft 444kts
06-Nov-20 14:11 46.215715 -122.701562 353 20827ft 417kts
06-Nov-20 14:12 46.327784 -122.722581 359 19307ft 394kts
06-Nov-20 14:13 46.435972 -122.726428 0 17505ft 383kts
06-Nov-20 14:14 46.540566 -122.730187 0 15738ft 369kts
06-Nov-20 14:15 46.638112 -122.733701 0 14228ft 341kts
06-Nov-20 14:16 46.730492 -122.737052 0 12866ft 323kts
06-Nov-20 14:17 46.811749 -122.705542 38 11346ft 307kts
06-Nov-20 14:18 46.875478 -122.625458 42 10178ft 277kts
06-Nov-20 14:19 46.928785 -122.549465 44 9545ft 270kts
06-Nov-20 14:20 46.980608 -122.472042 37 8361ft 262kts
06-Nov-20 14:21 47.042439 -122.417953 29 7344ft 257kts
06-Nov-20 14:22 47.103181 -122.366478 29 6338ft 254kts
06-Nov-20 14:23 47.162744 -122.316794 17 5826ft 248kts
06-Nov-20 14:24 47.227497 -122.313032 0 4063ft 223kts
06-Nov-20 14:25 47.286853 -122.312480 359 2693ft 196kts
06-Nov-20 14:26 47.336407 -122.310640 5 2042ft 156kts
06-Nov-20 14:27 47.378492 -122.308657 1 1390ft 141kts
06-Nov-20 14:28 47.416776 -122.308219 0 786ft 130kts
06-Nov-20 14:29 47.451305 -122.307849 0 481ft 87kts
06-Nov-20 14:30 47.460042 -122.306922 76 481ft 2kts
06-Nov-20 14:31 47.461793 -122.303739 89 481ft 8kts
06-Nov-20 14:32 47.461788 -122.301010 45 481ft 2kts
06-Nov-20 14:33 47.462377 -122.300932 1 481ft 0kts
06-Nov-20 14:34 47.462377 -122.300932 1 481ft 0kts

Navigation Log

Ident Type
Flight plan parsing failed, navigation log unavailable